TimeBST,TemperatureF,Dew PointF,Humidity,Sea Level PressureIn,VisibilityMPH,Wind Direction,Wind SpeedMPH,Gust SpeedMPH,PrecipitationIn,Events,Conditions,WindDirDegrees,DateUTC
12:50 AM,42,38,83,29.65,12,South,6.9,,,,,180,2012-10-12 23:50:00
12:50 AM,41.0,39.2,93,29.62,6.2,South,6.9,-,N/A,,Unknown,180,2012-10-12 23:50:00
1:50 AM,39.2,37.4,93,29.65,6.2,SSE,2.3,-,N/A,,Unknown,150,2012-10-13 00:50:00
2:50 AM,39.2,37.4,93,29.62,6.2,SSW,6.9,-,N/A,,Unknown,200,2012-10-13 01:50:00
3:50 AM,40,38,91,29.63,9,SSE,3.5,,,,Mostly Cloudy,160,2012-10-13 02:50:00
3:50 AM,41.0,39.2,93,29.62,6.2,SSE,3.5,-,N/A,,Mostly Cloudy,160,2012-10-13 02:50:00
5:50 AM,37.4,37.4,100,29.62,5.0,SE,6.9,-,N/A,,Partly Cloudy,140,2012-10-13 04:50:00
6:50 AM,37,36,96,29.64,4,South,3.5,,,,Mist,170,2012-10-13 05:50:00
6:50 AM,37.4,35.6,93,29.62,3.7,South,3.5,-,N/A,,Partly Cloudy,170,2012-10-13 05:50:00
7:50 AM,35.6,35.6,100,29.62,3.1,South,5.8,-,N/A,,Partly Cloudy,180,2012-10-13 06:50:00
8:50 AM,39.2,37.4,93,29.62,5.0,South,4.6,-,N/A,,Partly Cloudy,170,2012-10-13 07:50:00
9:50 AM,41,39,89,29.65,6,SSE,3.5,,,,Light Haze,150,2012-10-13 08:50:00
9:50 AM,41.0,39.2,93,29.65,5.6,SSE,3.5,-,N/A,,Haze,150,2012-10-13 08:50:00
10:50 AM,46.4,41.0,81,29.62,6.2,South,3.5,-,N/A,,Mostly Cloudy,170,2012-10-13 09:50:00
12:50 PM,51,42,62,29.64,11,SW,3.5,,,,Scattered Clouds,230,2012-10-13 11:50:00
1:50 PM,53.6,41.0,62,29.62,6.2,WSW,3.5,-,N/A,,Unknown,240,2012-10-13 12:50:00
2:50 PM,53.6,37.4,54,29.59,6.2,South,3.5,-,N/A,,Scattered Clouds,190,2012-10-13 13:50:00
3:50 PM,51,40,55,29.61,13,NE,3.5,,,Rain,Rain,40,2012-10-13 14:50:00
3:50 PM,51.8,39.2,62,29.59,6.2,NE,3.5,-,N/A,,Scattered Clouds,40,2012-10-13 14:50:00
4:50 PM,51.8,39.2,62,29.59,6.2,SSE,1.2,-,N/A,,Partly Cloudy,160,2012-10-13 15:50:00
5:50 PM,50.0,41.0,71,29.59,6.2,West,6.9,-,N/A,,Scattered Clouds,280,2012-10-13 16:50:00
6:50 PM,46,40,74,29.62,12,NNW,3.5,,,,Scattered Clouds,330,2012-10-13 17:50:00
6:50 PM,46.4,41.0,81,29.62,6.2,NNW,3.5,-,N/A,,Partly Cloudy,330,2012-10-13 17:50:00
8:50 PM,42.8,39.2,87,29.62,6.2,West,2.3,-,N/A,,Scattered Clouds,270,2012-10-13 19:50:00
9:50 PM,41,38,86,29.64,11,WNW,5.8,,,,Partly Cloudy,300,2012-10-13 20:50:00
10:50 PM,39.2,35.6,87,29.62,6.2,West,5.8,-,N/A,,Unknown,270,2012-10-13 21:50:00
11:50 PM,37.4,35.6,93,29.59,6.2,West,2.3,-,N/A,,Unknown,270,2012-10-13 22:50:00